sensor_id;sensor_type;location;lat;lon;timestamp;P1;durP1;ratioP1;P2;durP2;ratioP2
8708;SDS011;4391;48.678;9.280;2023-10-13T00:00:27;7.68;;;2.47;;
8708;SDS011;4391;48.678;9.280;2023-10-13T00:02:59;8.73;;;2.55;;
8708;SDS011;4391;48.678;9.280;2023-10-13T00:05:26;7.13;;;2.70;;
8708;SDS011;4391;48.678;9.280;2023-10-13T00:07:55;7.93;;;2.63;;
8708;SDS011;4391;48.678;9.280;2023-10-13T00:10:25;8.23;;;2.63;;
8708;SDS011;4391;48.678;9.280;2023-10-13T00:12:53;12.18;;;2.72;;
8708;SDS011;4391;48.678;9.280;2023-10-13T00:15:31;10.38;;;2.42;;
8708;SDS011;4391;48.678;9.280;2023-10-13T00:18:03;7.73;;;2.33;;
8708;SDS011;4391;48.678;9.280;2023-10-13T00:20:37;7.60;;;2.83;;
8708;SDS011;4391;48.678;9.280;2023-10-13T00:23:05;8.00;;;2.75;;
8708;SDS011;4391;48.678;9.280;2023-10-13T00:25:32;12.05;;;3.83;;
8708;SDS011;4391;48.678;9.280;2023-10-13T00:28:08;7.65;;;3.20;;
8708;SDS011;4391;48.678;9.280;2023-10-13T00:30:37;7.90;;;3.03;;
8708;SDS011;4391;48.678;9.280;2023-10-13T00:33:04;9.15;;;3.42;;
8708;SDS011;4391;48.678;9.280;2023-10-13T00:35:31;10.32;;;3.13;;
8708;SDS011;4391;48.678;9.280;2023-10-13T00:38:02;9.80;;;3.63;;
8708;SDS011;4391;48.678;9.280;2023-10-13T00:40:38;9.10;;;3.17;;
8708;SDS011;4391;48.678;9.280;2023-10-13T00:43:09;8.37;;;3.30;;
8708;SDS011;4391;48.678;9.280;2023-10-13T00:45:56;8.18;;;3.35;;
8708;SDS011;4391;48.678;9.280;2023-10-13T00:48:33;10.32;;;3.67;;
8708;SDS011;4391;48.678;9.280;2023-10-13T00:51:07;7.30;;;3.20;;
8708;SDS011;4391;48.678;9.280;2023-10-13T00:53:43;11.68;;;4.03;;
8708;SDS011;4391;48.678;9.280;2023-10-13T00:56:12;9.23;;;3.40;;
8708;SDS011;4391;48.678;9.280;2023-10-13T00:58:45;8.20;;;3.60;;
8708;SDS011;4391;48.678;9.280;2023-10-13T01:01:13;9.27;;;3.75;;
8708;SDS011;4391;48.678;9.280;2023-10-13T01:03:48;9.43;;;3.60;;
8708;SDS011;4391;48.678;9.280;2023-10-13T01:06:15;9.25;;;3.45;;
8708;SDS011;4391;48.678;9.280;2023-10-13T01:08:44;6.80;;;3.10;;
8708;SDS011;4391;48.678;9.280;2023-10-13T01:11:16;9.00;;;3.22;;
8708;SDS011;4391;48.678;9.280;2023-10-13T01:13:44;10.52;;;3.22;;
8708;SDS011;4391;48.678;9.280;2023-10-13T01:16:17;10.30;;;2.80;;
8708;SDS011;4391;48.678;9.280;2023-10-13T01:18:48;7.10;;;3.00;;
8708;SDS011;4391;48.678;9.280;2023-10-13T01:21:15;9.07;;;2.70;;
8708;SDS011;4391;48.678;9.280;2023-10-13T01:23:46;7.88;;;2.42;;
8708;SDS011;4391;48.678;9.280;2023-10-13T01:26:13;9.57;;;2.58;;
8708;SDS011;4391;48.678;9.280;2023-10-13T01:28:46;7.25;;;2.92;;
8708;SDS011;4391;48.678;9.280;2023-10-13T01:31:15;7.30;;;2.70;;
8708;SDS011;4391;48.678;9.280;2023-10-13T01:33:52;10.07;;;2.80;;
8708;SDS011;4391;48.678;9.280;2023-10-13T01:36:19;6.20;;;2.40;;
8708;SDS011;4391;48.678;9.280;2023-10-13T01:38:49;10.27;;;3.70;;
8708;SDS011;4391;48.678;9.280;2023-10-13T01:41:16;8.52;;;3.40;;
8708;SDS011;4391;48.678;9.280;2023-10-13T01:43:44;7.70;;;3.20;;
8708;SDS011;4391;48.678;9.280;2023-10-13T01:46:10;10.33;;;2.93;;
8708;SDS011;4391;48.678;9.280;2023-10-13T01:48:43;9.68;;;2.80;;
8708;SDS011;4391;48.678;9.280;2023-10-13T01:51:14;13.05;;;3.28;;
8708;SDS011;4391;48.678;9.280;2023-10-13T01:53:41;8.38;;;3.33;;
8708;SDS011;4391;48.678;9.280;2023-10-13T01:56:08;7.27;;;2.93;;
8708;SDS011;4391;48.678;9.280;2023-10-13T01:58:39;7.68;;;3.13;;
8708;SDS011;4391;48.678;9.280;2023-10-13T02:01:07;6.85;;;2.63;;
8708;SDS011;4391;48.678;9.280;2023-10-13T02:03:35;10.95;;;3.67;;
8708;SDS011;4391;48.678;9.280;2023-10-13T02:06:06;8.00;;;2.50;;
8708;SDS011;4391;48.678;9.280;2023-10-13T02:08:36;13.43;;;2.92;;
8708;SDS011;4391;48.678;9.280;2023-10-13T02:11:05;8.18;;;3.10;;
8708;SDS011;4391;48.678;9.280;2023-10-13T02:13:34;7.50;;;2.50;;
8708;SDS011;4391;48.678;9.280;2023-10-13T02:16:06;5.85;;;2.75;;
8708;SDS011;4391;48.678;9.280;2023-10-13T02:18:34;8.80;;;2.83;;
8708;SDS011;4391;48.678;9.280;2023-10-13T02:21:06;7.03;;;3.03;;
8708;SDS011;4391;48.678;9.280;2023-10-13T02:23:38;8.63;;;2.90;;
8708;SDS011;4391;48.678;9.280;2023-10-13T02:26:10;10.15;;;3.22;;
8708;SDS011;4391;48.678;9.280;2023-10-13T02:28:41;8.20;;;2.72;;
8708;SDS011;4391;48.678;9.280;2023-10-13T02:31:09;7.07;;;2.53;;
8708;SDS011;4391;48.678;9.280;2023-10-13T02:33:37;8.13;;;3.05;;
8708;SDS011;4391;48.678;9.280;2023-10-13T02:36:10;7.22;;;2.70;;
8708;SDS011;4391;48.678;9.280;2023-10-13T02:38:47;11.30;;;3.20;;
8708;SDS011;4391;48.678;9.280;2023-10-13T02:41:13;7.53;;;2.93;;
8708;SDS011;4391;48.678;9.280;2023-10-13T02:43:47;12.77;;;3.43;;
8708;SDS011;4391;48.678;9.280;2023-10-13T02:46:13;14.27;;;3.13;;
8708;SDS011;4391;48.678;9.280;2023-10-13T02:48:42;11.95;;;3.47;;
8708;SDS011;4391;48.678;9.280;2023-10-13T02:51:11;7.65;;;3.22;;
8708;SDS011;4391;48.678;9.280;2023-10-13T02:53:42;9.02;;;3.28;;
8708;SDS011;4391;48.678;9.280;2023-10-13T02:56:11;11.20;;;3.60;;
8708;SDS011;4391;48.678;9.280;2023-10-13T02:58:39;8.57;;;3.50;;
8708;SDS011;4391;48.678;9.280;2023-10-13T03:01:10;7.38;;;3.15;;
8708;SDS011;4391;48.678;9.280;2023-10-13T03:03:47;8.02;;;3.80;;
8708;SDS011;4391;48.678;9.280;2023-10-13T03:06:16;9.75;;;4.15;;
8708;SDS011;4391;48.678;9.280;2023-10-13T03:08:47;10.00;;;4.07;;
8708;SDS011;4391;48.678;9.280;2023-10-13T03:11:13;11.20;;;4.68;;
8708;SDS011;4391;48.678;9.280;2023-10-13T03:13:46;8.70;;;3.72;;
8708;SDS011;4391;48.678;9.280;2023-10-13T03:16:17;10.20;;;4.05;;
8708;SDS011;4391;48.678;9.280;2023-10-13T03:18:45;10.30;;;3.45;;
8708;SDS011;4391;48.678;9.280;2023-10-13T03:21:19;12.17;;;3.97;;
8708;SDS011;4391;48.678;9.280;2023-10-13T03:23:58;8.68;;;3.75;;
8708;SDS011;4391;48.678;9.280;2023-10-13T03:26:30;10.50;;;3.58;;
8708;SDS011;4391;48.678;9.280;2023-10-13T03:29:02;9.63;;;3.60;;
8708;SDS011;4391;48.678;9.280;2023-10-13T03:31:33;7.43;;;3.25;;
8708;SDS011;4391;48.678;9.280;2023-10-13T03:34:02;8.97;;;3.30;;
8708;SDS011;4391;48.678;9.280;2023-10-13T03:36:30;8.50;;;3.97;;
8708;SDS011;4391;48.678;9.280;2023-10-13T03:39:14;7.78;;;3.42;;
8708;SDS011;4391;48.678;9.280;2023-10-13T03:41:42;11.00;;;3.30;;
8708;SDS011;4391;48.678;9.280;2023-10-13T03:44:10;6.32;;;3.15;;
8708;SDS011;4391;48.678;9.280;2023-10-13T03:46:44;9.07;;;3.60;;
8708;SDS011;4391;48.678;9.280;2023-10-13T03:49:13;10.15;;;3.80;;
8708;SDS011;4391;48.678;9.280;2023-10-13T03:51:45;8.68;;;3.65;;
8708;SDS011;4391;48.678;9.280;2023-10-13T03:54:13;8.88;;;2.83;;
8708;SDS011;4391;48.678;9.280;2023-10-13T03:56:41;9.52;;;3.38;;
8708;SDS011;4391;48.678;9.280;2023-10-13T03:59:10;6.63;;;2.90;;
8708;SDS011;4391;48.678;9.280;2023-10-13T04:01:45;8.45;;;3.40;;
8708;SDS011;4391;48.678;9.280;2023-10-13T04:04:23;10.43;;;3.40;;
8708;SDS011;4391;48.678;9.280;2023-10-13T04:06:59;9.55;;;3.72;;
8708;SDS011;4391;48.678;9.280;2023-10-13T04:09:50;10.18;;;3.58;;
8708;SDS011;4391;48.678;9.280;2023-10-13T04:12:37;8.87;;;4.30;;
8708;SDS011;4391;48.678;9.280;2023-10-13T04:15:21;8.80;;;4.38;;
8708;SDS011;4391;48.678;9.280;2023-10-13T04:17:55;9.27;;;3.63;;
8708;SDS011;4391;48.678;9.280;2023-10-13T04:20:23;11.65;;;4.28;;
8708;SDS011;4391;48.678;9.280;2023-10-13T04:23:03;8.23;;;3.50;;
8708;SDS011;4391;48.678;9.280;2023-10-13T04:25:43;9.53;;;3.80;;
8708;SDS011;4391;48.678;9.280;2023-10-13T04:28:33;9.65;;;3.72;;
8708;SDS011;4391;48.678;9.280;2023-10-13T04:31:17;7.70;;;3.35;;
8708;SDS011;4391;48.678;9.280;2023-10-13T04:34:10;9.45;;;3.33;;
8708;SDS011;4391;48.678;9.280;2023-10-13T04:36:52;7.10;;;3.40;;
8708;SDS011;4391;48.678;9.280;2023-10-13T04:39:35;8.77;;;3.60;;
8708;SDS011;4391;48.678;9.280;2023-10-13T04:42:04;9.27;;;3.53;;
8708;SDS011;4391;48.678;9.280;2023-10-13T04:44:38;8.23;;;3.88;;
8708;SDS011;4391;48.678;9.280;2023-10-13T04:47:17;9.05;;;3.72;;
8708;SDS011;4391;48.678;9.280;2023-10-13T04:49:47;9.68;;;4.03;;
8708;SDS011;4391;48.678;9.280;2023-10-13T04:52:18;7.67;;;3.47;;
8708;SDS011;4391;48.678;9.280;2023-10-13T04:55:02;11.48;;;3.67;;
8708;SDS011;4391;48.678;9.280;2023-10-13T04:57:47;8.65;;;3.83;;
8708;SDS011;4391;48.678;9.280;2023-10-13T05:00:18;10.25;;;4.10;;
8708;SDS011;4391;48.678;9.280;2023-10-13T05:03:16;12.38;;;3.60;;
8708;SDS011;4391;48.678;9.280;2023-10-13T05:06:17;7.73;;;3.30;;
8708;SDS011;4391;48.678;9.280;2023-10-13T05:09:01;9.25;;;3.90;;
8708;SDS011;4391;48.678;9.280;2023-10-13T05:11:46;9.90;;;4.45;;
8708;SDS011;4391;48.678;9.280;2023-10-13T05:14:30;10.77;;;4.28;;
8708;SDS011;4391;48.678;9.280;2023-10-13T05:17:15;12.07;;;4.80;;
8708;SDS011;4391;48.678;9.280;2023-10-13T05:20:13;15.00;;;4.77;;
8708;SDS011;4391;48.678;9.280;2023-10-13T05:22:59;9.40;;;3.83;;
8708;SDS011;4391;48.678;9.280;2023-10-13T05:25:44;9.25;;;3.85;;
8708;SDS011;4391;48.678;9.280;2023-10-13T05:28:28;9.45;;;3.58;;
8708;SDS011;4391;48.678;9.280;2023-10-13T05:31:18;11.43;;;4.07;;
8708;SDS011;4391;48.678;9.280;2023-10-13T05:34:02;13.13;;;4.83;;
8708;SDS011;4391;48.678;9.280;2023-10-13T05:36:47;15.93;;;5.20;;
8708;SDS011;4391;48.678;9.280;2023-10-13T05:39:32;14.48;;;5.40;;
8708;SDS011;4391;48.678;9.280;2023-10-13T05:42:16;12.70;;;5.53;;
8708;SDS011;4391;48.678;9.280;2023-10-13T05:45:15;12.27;;;4.53;;
8708;SDS011;4391;48.678;9.280;2023-10-13T05:48:19;9.37;;;4.03;;
8708;SDS011;4391;48.678;9.280;2023-10-13T05:50:59;14.15;;;4.75;;
8708;SDS011;4391;48.678;9.280;2023-10-13T05:53:40;10.98;;;4.20;;
8708;SDS011;4391;48.678;9.280;2023-10-13T05:56:26;9.55;;;4.22;;
8708;SDS011;4391;48.678;9.280;2023-10-13T05:59:10;12.35;;;4.22;;
8708;SDS011;4391;48.678;9.280;2023-10-13T06:01:54;10.27;;;4.63;;
8708;SDS011;4391;48.678;9.280;2023-10-13T06:04:38;9.35;;;3.88;;
8708;SDS011;4391;48.678;9.280;2023-10-13T06:07:23;8.55;;;3.88;;
8708;SDS011;4391;48.678;9.280;2023-10-13T06:10:07;15.48;;;4.20;;
8708;SDS011;4391;48.678;9.280;2023-10-13T06:12:53;11.30;;;4.90;;
8708;SDS011;4391;48.678;9.280;2023-10-13T06:15:37;10.63;;;4.40;;
8708;SDS011;4391;48.678;9.280;2023-10-13T06:18:21;10.27;;;4.00;;
8708;SDS011;4391;48.678;9.280;2023-10-13T06:21:05;15.00;;;5.00;;
8708;SDS011;4391;48.678;9.280;2023-10-13T06:23:49;11.68;;;4.45;;
8708;SDS011;4391;48.678;9.280;2023-10-13T06:26:34;11.55;;;4.55;;
8708;SDS011;4391;48.678;9.280;2023-10-13T06:29:24;12.20;;;4.53;;
8708;SDS011;4391;48.678;9.280;2023-10-13T06:31:51;17.80;;;5.55;;
8708;SDS011;4391;48.678;9.280;2023-10-13T06:34:22;11.32;;;5.28;;
8708;SDS011;4391;48.678;9.280;2023-10-13T06:37:03;14.30;;;5.43;;
8708;SDS011;4391;48.678;9.280;2023-10-13T06:39:47;11.95;;;5.65;;
8708;SDS011;4391;48.678;9.280;2023-10-13T06:42:13;11.80;;;5.93;;
8708;SDS011;4391;48.678;9.280;2023-10-13T06:44:42;13.98;;;6.07;;
8708;SDS011;4391;48.678;9.280;2023-10-13T06:47:11;15.20;;;6.20;;
8708;SDS011;4391;48.678;9.280;2023-10-13T06:49:39;14.90;;;6.75;;
8708;SDS011;4391;48.678;9.280;2023-10-13T06:52:08;17.70;;;7.03;;
8708;SDS011;4391;48.678;9.280;2023-10-13T06:54:35;16.67;;;6.73;;
8708;SDS011;4391;48.678;9.280;2023-10-13T06:57:04;22.35;;;8.85;;
8708;SDS011;4391;48.678;9.280;2023-10-13T06:59:32;16.10;;;7.60;;
8708;SDS011;4391;48.678;9.280;2023-10-13T07:02:03;13.50;;;6.85;;
8708;SDS011;4391;48.678;9.280;2023-10-13T07:04:31;14.32;;;7.20;;
8708;SDS011;4391;48.678;9.280;2023-10-13T07:06:58;17.00;;;7.20;;
8708;SDS011;4391;48.678;9.280;2023-10-13T07:09:26;13.77;;;6.90;;
8708;SDS011;4391;48.678;9.280;2023-10-13T07:12:14;15.07;;;6.78;;
8708;SDS011;4391;48.678;9.280;2023-10-13T07:14:46;13.88;;;6.82;;
8708;SDS011;4391;48.678;9.280;2023-10-13T07:17:26;13.77;;;6.43;;
8708;SDS011;4391;48.678;9.280;2023-10-13T07:19:58;14.83;;;6.60;;
8708;SDS011;4391;48.678;9.280;2023-10-13T07:22:39;14.50;;;5.80;;
8708;SDS011;4391;48.678;9.280;2023-10-13T07:25:20;12.05;;;5.40;;
8708;SDS011;4391;48.678;9.280;2023-10-13T07:27:49;12.32;;;5.70;;
8708;SDS011;4391;48.678;9.280;2023-10-13T07:30:17;10.88;;;5.45;;
8708;SDS011;4391;48.678;9.280;2023-10-13T07:32:46;12.83;;;5.00;;
8708;SDS011;4391;48.678;9.280;2023-10-13T07:35:15;11.40;;;4.82;;
8708;SDS011;4391;48.678;9.280;2023-10-13T07:37:45;10.77;;;5.03;;
8708;SDS011;4391;48.678;9.280;2023-10-13T07:40:17;15.98;;;4.82;;
8708;SDS011;4391;48.678;9.280;2023-10-13T07:43:04;13.95;;;4.30;;
8708;SDS011;4391;48.678;9.280;2023-10-13T07:45:36;11.10;;;3.43;;
8708;SDS011;4391;48.678;9.280;2023-10-13T07:48:05;8.35;;;4.00;;
8708;SDS011;4391;48.678;9.280;2023-10-13T07:50:37;9.48;;;4.43;;
8708;SDS011;4391;48.678;9.280;2023-10-13T07:53:04;14.00;;;4.00;;
8708;SDS011;4391;48.678;9.280;2023-10-13T07:55:44;8.25;;;4.00;;
8708;SDS011;4391;48.678;9.280;2023-10-13T07:58:11;11.73;;;4.07;;
8708;SDS011;4391;48.678;9.280;2023-10-13T08:00:39;11.05;;;3.65;;
8708;SDS011;4391;48.678;9.280;2023-10-13T08:03:14;8.35;;;3.67;;
8708;SDS011;4391;48.678;9.280;2023-10-13T08:05:57;9.45;;;3.50;;
8708;SDS011;4391;48.678;9.280;2023-10-13T08:08:30;9.85;;;3.30;;
8708;SDS011;4391;48.678;9.280;2023-10-13T08:11:03;13.30;;;3.70;;
8708;SDS011;4391;48.678;9.280;2023-10-13T08:13:36;15.48;;;3.65;;
8708;SDS011;4391;48.678;9.280;2023-10-13T08:16:06;13.50;;;3.67;;
8708;SDS011;4391;48.678;9.280;2023-10-13T08:18:35;9.38;;;3.33;;
8708;SDS011;4391;48.678;9.280;2023-10-13T08:21:06;8.27;;;2.63;;
8708;SDS011;4391;48.678;9.280;2023-10-13T08:23:41;8.87;;;3.03;;
8708;SDS011;4391;48.678;9.280;2023-10-13T08:26:25;7.25;;;2.70;;
8708;SDS011;4391;48.678;9.280;2023-10-13T08:29:04;9.93;;;3.03;;
8708;SDS011;4391;48.678;9.280;2023-10-13T08:32:02;11.00;;;2.63;;
8708;SDS011;4391;48.678;9.280;2023-10-13T08:34:50;10.80;;;2.67;;
8708;SDS011;4391;48.678;9.280;2023-10-13T08:37:35;8.20;;;2.70;;
8708;SDS011;4391;48.678;9.280;2023-10-13T08:40:22;7.85;;;2.50;;
8708;SDS011;4391;48.678;9.280;2023-10-13T08:43:07;7.57;;;2.53;;
8708;SDS011;4391;48.678;9.280;2023-10-13T08:45:37;7.00;;;2.50;;
8708;SDS011;4391;48.678;9.280;2023-10-13T08:48:23;7.15;;;2.20;;
8708;SDS011;4391;48.678;9.280;2023-10-13T08:50:59;7.17;;;2.67;;
8708;SDS011;4391;48.678;9.280;2023-10-13T08:53:34;13.15;;;2.92;;
8708;SDS011;4391;48.678;9.280;2023-10-13T08:56:11;7.72;;;2.13;;
8708;SDS011;4391;48.678;9.280;2023-10-13T08:58:43;10.25;;;3.13;;
8708;SDS011;4391;48.678;9.280;2023-10-13T09:01:31;9.13;;;2.50;;
8708;SDS011;4391;48.678;9.280;2023-10-13T09:04:11;12.77;;;2.53;;
8708;SDS011;4391;48.678;9.280;2023-10-13T09:06:50;8.85;;;2.55;;
8708;SDS011;4391;48.678;9.280;2023-10-13T09:09:32;8.32;;;2.20;;
8708;SDS011;4391;48.678;9.280;2023-10-13T09:12:01;10.27;;;2.33;;
8708;SDS011;4391;48.678;9.280;2023-10-13T09:14:34;7.60;;;2.35;;
8708;SDS011;4391;48.678;9.280;2023-10-13T09:17:04;7.57;;;2.50;;
8708;SDS011;4391;48.678;9.280;2023-10-13T09:19:45;10.23;;;2.70;;
8708;SDS011;4391;48.678;9.280;2023-10-13T09:22:21;12.63;;;2.65;;
8708;SDS011;4391;48.678;9.280;2023-10-13T09:24:53;10.75;;;2.10;;
8708;SDS011;4391;48.678;9.280;2023-10-13T09:27:23;9.43;;;2.30;;
8708;SDS011;4391;48.678;9.280;2023-10-13T09:29:58;12.20;;;2.60;;
8708;SDS011;4391;48.678;9.280;2023-10-13T09:32:35;13.38;;;2.42;;
8708;SDS011;4391;48.678;9.280;2023-10-13T09:35:11;7.47;;;2.13;;
8708;SDS011;4391;48.678;9.280;2023-10-13T09:37:45;10.55;;;3.03;;
8708;SDS011;4391;48.678;9.280;2023-10-13T09:40:13;13.85;;;2.38;;
8708;SDS011;4391;48.678;9.280;2023-10-13T09:42:52;14.73;;;2.90;;
8708;SDS011;4391;48.678;9.280;2023-10-13T09:45:21;8.02;;;2.42;;
8708;SDS011;4391;48.678;9.280;2023-10-13T09:47:54;14.57;;;3.05;;
8708;SDS011;4391;48.678;9.280;2023-10-13T09:50:24;8.55;;;2.10;;
8708;SDS011;4391;48.678;9.280;2023-10-13T09:53:00;8.73;;;2.45;;
8708;SDS011;4391;48.678;9.280;2023-10-13T09:55:30;7.47;;;2.00;;
8708;SDS011;4391;48.678;9.280;2023-10-13T09:58:04;9.80;;;2.55;;
8708;SDS011;4391;48.678;9.280;2023-10-13T10:00:37;8.65;;;2.00;;
8708;SDS011;4391;48.678;9.280;2023-10-13T10:03:15;9.80;;;2.30;;
8708;SDS011;4391;48.678;9.280;2023-10-13T10:05:57;8.73;;;2.50;;
8708;SDS011;4391;48.678;9.280;2023-10-13T10:08:32;8.10;;;2.30;;
8708;SDS011;4391;48.678;9.280;2023-10-13T10:11:21;9.80;;;2.30;;
8708;SDS011;4391;48.678;9.280;2023-10-13T10:14:03;8.02;;;2.40;;
8708;SDS011;4391;48.678;9.280;2023-10-13T10:16:37;12.77;;;2.25;;
8708;SDS011;4391;48.678;9.280;2023-10-13T10:19:11;10.60;;;2.47;;
8708;SDS011;4391;48.678;9.280;2023-10-13T10:21:38;8.10;;;2.47;;
8708;SDS011;4391;48.678;9.280;2023-10-13T10:24:16;8.88;;;1.98;;
8708;SDS011;4391;48.678;9.280;2023-10-13T10:26:55;7.80;;;2.20;;
8708;SDS011;4391;48.678;9.280;2023-10-13T10:29:22;13.65;;;2.10;;
8708;SDS011;4391;48.678;9.280;2023-10-13T10:31:49;8.05;;;2.38;;
8708;SDS011;4391;48.678;9.280;2023-10-13T10:34:16;8.50;;;1.97;;
8708;SDS011;4391;48.678;9.280;2023-10-13T10:36:46;10.02;;;2.45;;
8708;SDS011;4391;48.678;9.280;2023-10-13T10:39:13;7.70;;;1.92;;
8708;SDS011;4391;48.678;9.280;2023-10-13T10:41:43;10.23;;;2.42;;
8708;SDS011;4391;48.678;9.280;2023-10-13T10:44:17;10.43;;;2.35;;
8708;SDS011;4391;48.678;9.280;2023-10-13T10:46:47;9.60;;;1.97;;
8708;SDS011;4391;48.678;9.280;2023-10-13T10:49:23;5.65;;;1.88;;
8708;SDS011;4391;48.678;9.280;2023-10-13T10:51:57;7.50;;;1.90;;
8708;SDS011;4391;48.678;9.280;2023-10-13T10:54:29;9.02;;;1.80;;
8708;SDS011;4391;48.678;9.280;2023-10-13T10:56:58;9.32;;;2.50;;
8708;SDS011;4391;48.678;9.280;2023-10-13T10:59:37;8.30;;;2.27;;
8708;SDS011;4391;48.678;9.280;2023-10-13T11:02:05;11.18;;;3.65;;
8708;SDS011;4391;48.678;9.280;2023-10-13T11:04:34;9.93;;;2.50;;
8708;SDS011;4391;48.678;9.280;2023-10-13T11:07:05;7.15;;;1.85;;
8708;SDS011;4391;48.678;9.280;2023-10-13T11:09:34;8.55;;;2.15;;
8708;SDS011;4391;48.678;9.280;2023-10-13T11:12:12;8.50;;;1.87;;
8708;SDS011;4391;48.678;9.280;2023-10-13T11:14:41;7.63;;;1.75;;
8708;SDS011;4391;48.678;9.280;2023-10-13T11:17:18;8.18;;;2.10;;
8708;SDS011;4391;48.678;9.280;2023-10-13T11:19:46;14.13;;;2.45;;
8708;SDS011;4391;48.678;9.280;2023-10-13T11:22:13;12.13;;;2.00;;
8708;SDS011;4391;48.678;9.280;2023-10-13T11:24:57;6.40;;;1.87;;
8708;SDS011;4391;48.678;9.280;2023-10-13T11:27:29;8.77;;;2.20;;
8708;SDS011;4391;48.678;9.280;2023-10-13T11:30:22;7.57;;;2.30;;
8708;SDS011;4391;48.678;9.280;2023-10-13T11:32:58;7.50;;;1.90;;
8708;SDS011;4391;48.678;9.280;2023-10-13T11:35:25;8.13;;;1.70;;
8708;SDS011;4391;48.678;9.280;2023-10-13T11:37:55;7.90;;;2.20;;
8708;SDS011;4391;48.678;9.280;2023-10-13T11:40:28;8.07;;;2.00;;
8708;SDS011;4391;48.678;9.280;2023-10-13T11:43:10;8.20;;;1.70;;
8708;SDS011;4391;48.678;9.280;2023-10-13T11:45:39;6.75;;;1.77;;
8708;SDS011;4391;48.678;9.280;2023-10-13T11:48:19;7.45;;;1.73;;
8708;SDS011;4391;48.678;9.280;2023-10-13T11:50:59;8.83;;;1.80;;
8708;SDS011;4391;48.678;9.280;2023-10-13T11:53:30;5.00;;;1.70;;
8708;SDS011;4391;48.678;9.280;2023-10-13T11:55:58;10.27;;;2.13;;
8708;SDS011;4391;48.678;9.280;2023-10-13T11:58:26;12.85;;;1.80;;
8708;SDS011;4391;48.678;9.280;2023-10-13T12:00:54;9.63;;;1.80;;
8708;SDS011;4391;48.678;9.280;2023-10-13T12:03:45;5.63;;;1.60;;
8708;SDS011;4391;48.678;9.280;2023-10-13T12:06:30;7.47;;;2.22;;
8708;SDS011;4391;48.678;9.280;2023-10-13T12:09:11;8.70;;;1.50;;
8708;SDS011;4391;48.678;9.280;2023-10-13T12:12:01;9.70;;;1.60;;
8708;SDS011;4391;48.678;9.280;2023-10-13T12:14:31;5.90;;;1.88;;
8708;SDS011;4391;48.678;9.280;2023-10-13T12:17:02;6.97;;;2.17;;
8708;SDS011;4391;48.678;9.280;2023-10-13T12:19:35;6.05;;;2.20;;
8708;SDS011;4391;48.678;9.280;2023-10-13T12:22:03;6.57;;;2.08;;
8708;SDS011;4391;48.678;9.280;2023-10-13T12:24:41;6.25;;;1.60;;
8708;SDS011;4391;48.678;9.280;2023-10-13T12:27:08;5.30;;;2.00;;
8708;SDS011;4391;48.678;9.280;2023-10-13T12:30:01;8.00;;;2.10;;
8708;SDS011;4391;48.678;9.280;2023-10-13T12:32:32;8.45;;;2.05;;
8708;SDS011;4391;48.678;9.280;2023-10-13T12:34:59;7.07;;;1.90;;
8708;SDS011;4391;48.678;9.280;2023-10-13T12:37:42;14.43;;;2.28;;
8708;SDS011;4391;48.678;9.280;2023-10-13T12:40:25;7.20;;;1.88;;
8708;SDS011;4391;48.678;9.280;2023-10-13T12:43:10;9.07;;;2.00;;
8708;SDS011;4391;48.678;9.280;2023-10-13T12:45:57;8.82;;;2.15;;
8708;SDS011;4391;48.678;9.280;2023-10-13T12:48:42;7.88;;;2.10;;
8708;SDS011;4391;48.678;9.280;2023-10-13T12:51:41;8.43;;;2.13;;
8708;SDS011;4391;48.678;9.280;2023-10-13T12:54:15;8.23;;;2.25;;
8708;SDS011;4391;48.678;9.280;2023-10-13T12:56:48;10.00;;;2.10;;
8708;SDS011;4391;48.678;9.280;2023-10-13T12:59:21;7.43;;;1.63;;
8708;SDS011;4391;48.678;9.280;2023-10-13T13:01:53;8.00;;;1.67;;
8708;SDS011;4391;48.678;9.280;2023-10-13T13:04:20;8.38;;;2.00;;
8708;SDS011;4391;48.678;9.280;2023-10-13T13:06:47;10.40;;;2.10;;
8708;SDS011;4391;48.678;9.280;2023-10-13T13:09:23;7.33;;;1.80;;
8708;SDS011;4391;48.678;9.280;2023-10-13T13:11:51;8.13;;;1.90;;
8708;SDS011;4391;48.678;9.280;2023-10-13T13:14:22;9.82;;;2.20;;
8708;SDS011;4391;48.678;9.280;2023-10-13T13:16:55;5.53;;;1.90;;
8708;SDS011;4391;48.678;9.280;2023-10-13T13:19:29;8.05;;;1.88;;
8708;SDS011;4391;48.678;9.280;2023-10-13T13:21:59;9.40;;;2.00;;
8708;SDS011;4391;48.678;9.280;2023-10-13T13:24:25;6.22;;;2.15;;
8708;SDS011;4391;48.678;9.280;2023-10-13T13:26:55;6.25;;;1.90;;
8708;SDS011;4391;48.678;9.280;2023-10-13T13:29:21;6.38;;;1.80;;
8708;SDS011;4391;48.678;9.280;2023-10-13T13:31:50;7.47;;;2.10;;
8708;SDS011;4391;48.678;9.280;2023-10-13T13:34:19;8.97;;;2.00;;
8708;SDS011;4391;48.678;9.280;2023-10-13T13:36:46;8.75;;;2.05;;
8708;SDS011;4391;48.678;9.280;2023-10-13T13:39:17;11.48;;;2.20;;
8708;SDS011;4391;48.678;9.280;2023-10-13T13:41:54;7.88;;;2.00;;
8708;SDS011;4391;48.678;9.280;2023-10-13T13:44:22;14.57;;;2.15;;
8708;SDS011;4391;48.678;9.280;2023-10-13T13:46:54;9.40;;;1.90;;
8708;SDS011;4391;48.678;9.280;2023-10-13T13:49:24;6.22;;;1.95;;
8708;SDS011;4391;48.678;9.280;2023-10-13T13:52:05;10.88;;;2.78;;
8708;SDS011;4391;48.678;9.280;2023-10-13T13:54:32;6.68;;;1.92;;
8708;SDS011;4391;48.678;9.280;2023-10-13T13:56:59;6.50;;;1.80;;
8708;SDS011;4391;48.678;9.280;2023-10-13T13:59:26;6.60;;;1.77;;
8708;SDS011;4391;48.678;9.280;2023-10-13T14:01:58;5.20;;;1.88;;
8708;SDS011;4391;48.678;9.280;2023-10-13T14:04:32;7.75;;;1.80;;
8708;SDS011;4391;48.678;9.280;2023-10-13T14:06:59;8.15;;;2.00;;
8708;SDS011;4391;48.678;9.280;2023-10-13T14:09:31;10.90;;;2.58;;
8708;SDS011;4391;48.678;9.280;2023-10-13T14:12:01;10.17;;;1.80;;
8708;SDS011;4391;48.678;9.280;2023-10-13T14:14:45;7.97;;;2.10;;
8708;SDS011;4391;48.678;9.280;2023-10-13T14:17:16;4.43;;;1.83;;
8708;SDS011;4391;48.678;9.280;2023-10-13T14:19:44;11.60;;;1.95;;
8708;SDS011;4391;48.678;9.280;2023-10-13T14:22:11;7.55;;;1.85;;
8708;SDS011;4391;48.678;9.280;2023-10-13T14:24:38;9.53;;;2.00;;
8708;SDS011;4391;48.678;9.280;2023-10-13T14:27:12;7.55;;;1.88;;
8708;SDS011;4391;48.678;9.280;2023-10-13T14:29:42;6.05;;;1.88;;
8708;SDS011;4391;48.678;9.280;2023-10-13T14:32:10;6.20;;;1.90;;
8708;SDS011;4391;48.678;9.280;2023-10-13T14:34:39;6.43;;;1.77;;
8708;SDS011;4391;48.678;9.280;2023-10-13T14:37:07;6.07;;;1.90;;
8708;SDS011;4391;48.678;9.280;2023-10-13T14:39:37;7.97;;;2.05;;
8708;SDS011;4391;48.678;9.280;2023-10-13T14:42:04;7.43;;;1.63;;
8708;SDS011;4391;48.678;9.280;2023-10-13T14:44:31;8.30;;;1.75;;
8708;SDS011;4391;48.678;9.280;2023-10-13T14:46:59;9.07;;;1.85;;
8708;SDS011;4391;48.678;9.280;2023-10-13T14:49:26;7.20;;;1.73;;
8708;SDS011;4391;48.678;9.280;2023-10-13T14:51:53;6.82;;;1.63;;
8708;SDS011;4391;48.678;9.280;2023-10-13T14:54:22;6.82;;;2.28;;
8708;SDS011;4391;48.678;9.280;2023-10-13T14:56:58;5.10;;;1.50;;
8708;SDS011;4391;48.678;9.280;2023-10-13T14:59:26;5.10;;;1.38;;
8708;SDS011;4391;48.678;9.280;2023-10-13T15:01:58;5.00;;;1.40;;
8708;SDS011;4391;48.678;9.280;2023-10-13T15:04:26;5.90;;;1.48;;
8708;SDS011;4391;48.678;9.280;2023-10-13T15:06:53;8.68;;;1.60;;
8708;SDS011;4391;48.678;9.280;2023-10-13T15:09:22;8.70;;;1.35;;
8708;SDS011;4391;48.678;9.280;2023-10-13T15:11:49;4.60;;;1.38;;
8708;SDS011;4391;48.678;9.280;2023-10-13T15:14:18;5.73;;;1.53;;
8708;SDS011;4391;48.678;9.280;2023-10-13T15:16:47;8.00;;;1.45;;
8708;SDS011;4391;48.678;9.280;2023-10-13T15:19:14;9.13;;;1.73;;
8708;SDS011;4391;48.678;9.280;2023-10-13T15:21:42;10.05;;;1.60;;
8708;SDS011;4391;48.678;9.280;2023-10-13T15:24:14;7.38;;;1.27;;
8708;SDS011;4391;48.678;9.280;2023-10-13T15:26:43;7.13;;;1.50;;
8708;SDS011;4391;48.678;9.280;2023-10-13T15:29:13;4.50;;;1.52;;
8708;SDS011;4391;48.678;9.280;2023-10-13T15:31:42;4.63;;;1.40;;
8708;SDS011;4391;48.678;9.280;2023-10-13T15:34:19;8.55;;;1.55;;
8708;SDS011;4391;48.678;9.280;2023-10-13T15:36:48;4.57;;;1.23;;
8708;SDS011;4391;48.678;9.280;2023-10-13T15:39:17;5.43;;;1.40;;
8708;SDS011;4391;48.678;9.280;2023-10-13T15:41:50;6.97;;;1.55;;
8708;SDS011;4391;48.678;9.280;2023-10-13T15:44:18;6.25;;;1.20;;
8708;SDS011;4391;48.678;9.280;2023-10-13T15:46:50;7.63;;;1.60;;
8708;SDS011;4391;48.678;9.280;2023-10-13T15:49:19;5.63;;;1.58;;
8708;SDS011;4391;48.678;9.280;2023-10-13T15:51:46;8.97;;;1.67;;